MET'MAP v2.0
soon released !

Expected late october,
this new version will be
more efficient, smarter,
and hosted on a brand new
server x3 powerfull...
...and still free !


Not compatible ?
Try the mobile version !

LOG IN : | Subscribe | Disclaimer | Who is Orbifly ? |
ICAO code :

TAF - LIRV Roma Viterbo Air Force Base (military) - 06 Dec 2019 11:19 UTC
Data Sources :     NOAA   


- Airport Elevation : 992 ft
- No reported NOTAMs.


LIRV - Roma Viterbo Air Force Base (military)

Latest METAR recorded : 2015/08/11 07:55 LIRV 110755Z 06009KT 9999 FEW035 21/19 Q1012
TAF TAF LIRV
Valid from the 06 at 09:00 until the 06 at 18:00 UTC


060800Z 0609/0618 18005KT 9999 SCT035
TEMPO 0612/0618 RA BKN030
TEMPO 0612/0615 5000 TSRA FEW020CB SCT030

Source NOAA


MET'MAP, your aeronautical weather chart ! - Copyright ORBIFLY December 2007

Programming & Development : Alexandra Zaïnal
Co-Developer : Marc-Olivier Méhu
Technical & hardware support : Manuel Goepfert
Concept & Financing : Baudouin d'Aumeries